ilmateenistus.ee keskkonnaagentuur.ee
EETN Tallinna lennuväli
FTEO31 EETN 212300
TAF EETN 212330Z 2200/2224 31015G25KT CAVOK TEMPO 2200/2210
    32020G35KT PROB30 TEMPO 2200/2203 BKN015 BECMG 2214/2216 28005KT=

METAR EETN 220120Z 30013KT CAVOK 03/M03 Q1017 R08/290195 =
Tallinna lennuväli
EEKA Kärdla lennuväli
METAR EEKA 220050Z NIL=
Kärdla lennuväli
EEKE Kuressaare lennuväli
METAR EEKE 220050Z AUTO 30006KT 9999NDV FEW052 03/00 Q1021=
Kuressaare lennuväli
EEPU Pärnu lennuväli
METAR EEPU 220050Z NIL=
Pärnu lennuväli
EETU Tartu lennuväli
FCEO32 EETN 220100 AAA
TAF AMD EETU 212100Z 2122/2204 CNL=

METAR EETU 220120Z AUTO 29012KT 9999 OVC092/// 04/01 Q1015=
Tartu lennuväli
EEEI Ämari lennuväli
METAR EEEI 220050Z 29012KT CAVOK 03/M03 Q1017 R24/290095=
Ämari lennuväli

Uudised

Lisainfo 24h: 666 0932 aviamet@envir.ee